createdAt,value
2019-01-02T00:00:20.335Z,99.90
2019-01-02T00:02:57.092Z,99.90
2019-01-02T00:05:28.634Z,99.90
2019-01-02T00:08:04.787Z,99.90
2019-01-02T00:10:36.332Z,99.90
2019-01-02T00:13:08.927Z,99.90
2019-01-02T00:15:40.440Z,99.90
2019-01-02T00:18:12.747Z,99.90
2019-01-02T00:20:43.850Z,99.90
2019-01-02T00:23:15.519Z,99.90
2019-01-02T00:25:46.696Z,99.90
2019-01-02T00:28:24.445Z,99.90
2019-01-02T00:30:55.230Z,99.90
2019-01-02T00:33:26.485Z,99.90
2019-01-02T00:35:58.098Z,99.90
2019-01-02T00:38:30.663Z,99.90
2019-01-02T00:41:02.138Z,99.90
2019-01-02T00:43:33.114Z,99.90
2019-01-02T00:46:04.719Z,99.90
2019-01-02T00:48:36.320Z,99.90
2019-01-02T00:51:07.213Z,99.90
2019-01-02T00:53:38.384Z,99.90
2019-01-02T00:56:14.331Z,99.90
2019-01-02T00:58:55.938Z,99.90
2019-01-02T01:01:27.793Z,99.90
2019-01-02T01:03:59.264Z,99.90
2019-01-02T01:06:30.526Z,99.90
2019-01-02T01:09:01.922Z,99.90
2019-01-02T01:11:34.022Z,99.90
2019-01-02T01:14:06.654Z,99.90
2019-01-02T01:16:37.686Z,99.90
2019-01-02T01:19:09.069Z,99.90
2019-01-02T01:21:40.009Z,99.90
2019-01-02T01:24:14.563Z,99.90
2019-01-02T01:26:45.410Z,99.90
2019-01-02T01:29:16.655Z,99.90
2019-01-02T01:32:03.501Z,99.90
2019-01-02T01:34:34.872Z,99.90
2019-01-02T01:37:05.639Z,99.90
2019-01-02T01:39:36.939Z,99.90
2019-01-02T01:42:08.452Z,99.90
2019-01-02T01:44:39.582Z,99.90
2019-01-02T01:47:10.922Z,99.90
2019-01-02T01:49:47.923Z,99.90
2019-01-02T01:52:22.998Z,99.90
2019-01-02T01:54:54.056Z,99.90
2019-01-02T01:57:25.248Z,99.90
2019-01-02T01:59:56.133Z,99.90
2019-01-02T02:02:27.906Z,99.90
2019-01-02T02:04:59.291Z,99.90
2019-01-02T02:07:30.205Z,99.90
2019-01-02T02:10:11.407Z,99.90
2019-01-02T02:12:42.524Z,99.90
2019-01-02T02:15:13.777Z,99.90
2019-01-02T02:17:45.854Z,99.90
2019-01-02T02:20:18.313Z,99.90
2019-01-02T02:22:49.405Z,99.90
2019-01-02T02:25:35.357Z,99.90
2019-01-02T02:28:06.511Z,99.90
2019-01-02T02:30:39.134Z,99.90
2019-01-02T02:33:10.062Z,99.90
2019-01-02T02:35:41.734Z,99.90
2019-01-02T02:38:13.237Z,99.90
2019-01-02T02:40:44.760Z,99.90
2019-01-02T02:43:15.817Z,99.90
2019-01-02T02:45:47.071Z,99.90
2019-01-02T02:48:18.452Z,99.90
2019-01-02T02:50:49.760Z,99.90
2019-01-02T02:53:21.222Z,99.90
2019-01-02T02:55:52.405Z,99.90
2019-01-02T02:58:23.803Z,99.90
2019-01-02T03:00:54.889Z,99.90
2019-01-02T03:03:26.274Z,99.90
2019-01-02T03:05:57.456Z,99.90
2019-01-02T03:08:29.594Z,99.90
2019-01-02T03:11:00.750Z,99.90
2019-01-02T03:13:32.202Z,99.90
2019-01-02T03:16:03.608Z,99.90
2019-01-02T03:18:36.078Z,99.90
2019-01-02T03:21:07.322Z,99.90
2019-01-02T03:23:38.338Z,99.90
2019-01-02T03:26:09.605Z,99.90
2019-01-02T03:28:40.889Z,99.90
2019-01-02T03:31:12.439Z,99.90
2019-01-02T03:33:46.861Z,99.90
2019-01-02T03:36:25.896Z,99.90
2019-01-02T03:39:05.127Z,99.90
2019-01-02T03:41:36.373Z,99.90
2019-01-02T03:44:08.444Z,99.90
2019-01-02T03:46:39.732Z,99.90
2019-01-02T03:49:10.891Z,99.90
2019-01-02T03:51:42.040Z,99.90
2019-01-02T03:54:21.404Z,99.90
2019-01-02T03:56:52.868Z,99.90
2019-01-02T03:59:24.074Z,99.90
2019-01-02T04:01:54.971Z,99.90
2019-01-02T04:04:28.549Z,99.90
2019-01-02T04:06:59.270Z,99.90
2019-01-02T04:09:30.664Z,99.90
2019-01-02T04:12:01.364Z,99.90
2019-01-02T04:14:32.504Z,99.90
2019-01-02T04:17:03.716Z,99.90
2019-01-02T04:19:34.689Z,99.90
2019-01-02T04:22:06.542Z,99.90
2019-01-02T04:24:38.749Z,99.90
2019-01-02T04:27:10.181Z,99.90
2019-01-02T04:29:41.244Z,99.90
2019-01-02T04:32:14.179Z,99.90
2019-01-02T04:34:45.357Z,99.90
2019-01-02T04:37:16.486Z,99.90
2019-01-02T04:39:48.289Z,99.90
2019-01-02T04:42:19.573Z,99.90
2019-01-02T04:44:50.781Z,99.90
2019-01-02T04:47:24.491Z,99.90
2019-01-02T04:49:55.129Z,99.90
2019-01-02T04:52:40.384Z,99.90
2019-01-02T04:55:11.364Z,99.90
2019-01-02T04:57:42.540Z,99.90
2019-01-02T05:00:17.034Z,99.90
2019-01-02T05:02:48.633Z,99.90
2019-01-02T05:05:19.749Z,99.90
2019-01-02T05:07:57.579Z,99.90
2019-01-02T05:10:28.775Z,99.90
2019-01-02T05:13:00.015Z,99.90
2019-01-02T05:15:31.051Z,99.90
2019-01-02T05:18:02.508Z,99.90
2019-01-02T05:20:33.712Z,99.90
2019-01-02T05:23:05.209Z,99.90
2019-01-02T05:25:37.088Z,99.90
2019-01-02T05:28:12.122Z,99.90
2019-01-02T05:30:43.162Z,99.90
2019-01-02T05:33:14.484Z,99.90
2019-01-02T05:35:45.630Z,99.90
2019-01-02T05:38:16.795Z,99.90
2019-01-02T05:40:48.837Z,99.90
2019-01-02T05:43:27.356Z,99.90
2019-01-02T05:46:05.529Z,99.90
2019-01-02T05:48:37.011Z,99.90
2019-01-02T05:51:08.045Z,99.90
2019-01-02T05:53:39.292Z,99.90
2019-01-02T05:56:10.205Z,99.90
2019-01-02T05:58:41.585Z,99.90
2019-01-02T06:01:12.805Z,99.90
2019-01-02T06:03:43.963Z,99.90
2019-01-02T06:06:17.882Z,99.90
2019-01-02T06:08:49.267Z,99.90
2019-01-02T06:11:20.025Z,99.90
2019-01-02T06:13:52.292Z,99.90
2019-01-02T06:16:42.512Z,99.90
2019-01-02T06:19:13.488Z,99.90
2019-01-02T06:21:44.818Z,99.90
2019-01-02T06:24:16.335Z,99.90
2019-01-02T06:26:47.284Z,99.90
2019-01-02T06:29:18.992Z,99.90
2019-01-02T06:31:49.697Z,99.90
2019-01-02T06:34:20.763Z,99.90
2019-01-02T06:36:51.480Z,99.90
2019-01-02T06:39:31.206Z,99.90
2019-01-02T06:42:02.239Z,99.90
2019-01-02T06:44:36.048Z,99.90
2019-01-02T06:47:07.089Z,99.90
2019-01-02T06:49:38.409Z,99.90
2019-01-02T06:52:17.406Z,99.90
2019-01-02T06:54:48.808Z,99.90
2019-01-02T06:57:19.749Z,99.90
2019-01-02T06:59:51.161Z,99.90
2019-01-02T07:02:22.087Z,99.90
2019-01-02T07:04:53.255Z,99.90
2019-01-02T07:07:24.384Z,99.90
2019-01-02T07:09:55.163Z,99.90
2019-01-02T07:12:27.737Z,99.90
2019-01-02T07:14:58.629Z,99.90
2019-01-02T07:17:29.683Z,99.90
2019-01-02T07:20:02.579Z,99.90
2019-01-02T07:22:33.649Z,99.90
2019-01-02T07:25:04.959Z,99.90
2019-01-02T07:27:36.083Z,99.90
2019-01-02T07:30:10.115Z,99.90
2019-01-02T07:32:41.103Z,99.90
2019-01-02T07:36:13.938Z,99.90
2019-01-02T07:39:37.839Z,99.90
2019-01-02T07:42:41.587Z,99.90
2019-01-02T07:45:56.387Z,99.90
2019-01-02T07:48:54.756Z,99.90
2019-01-02T07:51:50.475Z,99.90
2019-01-02T07:55:03.940Z,99.90
2019-01-02T07:58:24.583Z,99.90
2019-01-02T08:01:41.694Z,99.90
2019-01-02T08:04:49.042Z,99.90
2019-01-02T08:08:04.148Z,99.80
2019-01-02T08:11:04.065Z,99.60
2019-01-02T08:14:08.598Z,99.00
2019-01-02T08:17:19.365Z,98.90
2019-01-02T08:20:22.865Z,98.90
2019-01-02T08:23:48.709Z,98.40
2019-01-02T08:27:22.166Z,98.30
2019-01-02T08:30:43.587Z,98.60
2019-01-02T08:33:58.062Z,98.60
2019-01-02T08:37:09.870Z,98.30
2019-01-02T08:40:31.873Z,97.70
2019-01-02T08:43:31.565Z,98.00
2019-01-02T08:46:39.678Z,98.30
2019-01-02T08:49:47.223Z,98.00
2019-01-02T08:52:48.571Z,97.80
2019-01-02T08:55:32.074Z,97.50
2019-01-02T08:58:42.986Z,97.10
2019-01-02T09:01:45.738Z,97.60
2019-01-02T09:05:08.303Z,97.60
2019-01-02T09:08:20.346Z,96.50
2019-01-02T09:11:40.108Z,96.60
2019-01-02T09:15:16.329Z,96.20
2019-01-02T09:18:22.255Z,95.50
2019-01-02T09:21:46.066Z,95.90
2019-01-02T09:25:03.457Z,95.50
2019-01-02T09:28:01.579Z,96.00
2019-01-02T09:30:56.323Z,95.90
2019-01-02T09:33:59.890Z,95.90
2019-01-02T09:37:37.437Z,94.90
2019-01-02T09:40:52.298Z,94.70
2019-01-02T09:43:59.754Z,94.60
2019-01-02T09:47:03.989Z,94.80
2019-01-02T09:50:10.997Z,94.50
2019-01-02T09:53:31.008Z,94.80
2019-01-02T09:56:43.545Z,94.40
2019-01-02T09:59:49.795Z,94.40
2019-01-02T10:03:17.644Z,94.70
2019-01-02T10:06:28.044Z,95.00
2019-01-02T10:09:22.226Z,94.80
2019-01-02T10:12:24.807Z,94.70
2019-01-02T10:15:55.043Z,94.00
2019-01-02T10:19:05.194Z,94.00
2019-01-02T10:22:04.474Z,94.20
2019-01-02T10:25:12.124Z,94.00
2019-01-02T10:28:16.890Z,93.80
2019-01-02T10:31:32.671Z,94.00
2019-01-02T10:34:28.700Z,94.00
2019-01-02T10:37:34.888Z,93.80
2019-01-02T10:40:42.791Z,94.40
2019-01-02T10:44:07.537Z,94.10
2019-01-02T10:47:22.431Z,94.30
2019-01-02T10:50:46.850Z,94.10
2019-01-02T10:54:15.493Z,94.10
2019-01-02T10:57:23.426Z,94.20
2019-01-02T11:00:20.599Z,94.30
2019-01-02T11:03:34.487Z,94.20
2019-01-02T11:06:43.077Z,94.30
2019-01-02T11:10:19.778Z,94.50
2019-01-02T11:13:34.378Z,94.10
2019-01-02T11:16:52.819Z,94.00
2019-01-02T11:20:08.608Z,93.80
2019-01-02T11:23:13.934Z,93.70
2019-01-02T11:26:20.342Z,93.70
2019-01-02T11:29:42.390Z,93.50
2019-01-02T11:33:19.792Z,93.30
2019-01-02T11:36:20.259Z,93.60
2019-01-02T11:39:09.885Z,93.10
2019-01-02T11:42:27.119Z,93.50
2019-01-02T11:45:12.170Z,93.40
2019-01-02T11:47:43.763Z,93.00
2019-01-02T11:50:16.081Z,93.20
2019-01-02T11:52:47.399Z,93.10
2019-01-02T11:55:18.270Z,93.10
2019-01-02T11:57:49.390Z,92.60
2019-01-02T12:00:20.415Z,92.60
2019-01-02T12:02:53.835Z,92.20
2019-01-02T12:05:25.018Z,92.10
2019-01-02T12:07:56.478Z,91.60
2019-01-02T12:10:27.825Z,91.40
2019-01-02T12:12:59.449Z,91.40
2019-01-02T12:15:31.011Z,91.40
2019-01-02T12:18:02.519Z,91.40
2019-01-02T12:20:33.801Z,91.50
2019-01-02T12:23:07.808Z,91.00
2019-01-02T12:25:39.259Z,90.70
2019-01-02T12:28:20.645Z,90.40
2019-01-02T12:30:51.926Z,90.30
2019-01-02T12:33:23.271Z,89.00
2019-01-02T12:35:54.817Z,88.40
2019-01-02T12:38:26.132Z,89.50
2019-01-02T12:41:09.562Z,89.40
2019-01-02T12:43:43.743Z,90.10
2019-01-02T12:46:14.628Z,89.90
2019-01-02T12:48:45.979Z,90.00
2019-01-02T12:51:17.188Z,90.00
2019-01-02T12:53:48.700Z,90.10
2019-01-02T12:56:19.682Z,90.20
2019-01-02T12:58:51.060Z,90.20
2019-01-02T13:01:45.726Z,90.10
2019-01-02T13:04:50.445Z,90.40
2019-01-02T13:07:53.336Z,90.50
2019-01-02T13:11:20.751Z,91.00
2019-01-02T13:14:24.117Z,91.40
2019-01-02T13:17:21.245Z,91.10
2019-01-02T13:20:16.455Z,91.00
2019-01-02T13:23:20.777Z,90.70
2019-01-02T13:25:56.707Z,90.80
2019-01-02T13:29:11.342Z,90.80
2019-01-02T13:32:31.128Z,90.60
2019-01-02T13:35:33.709Z,89.90
2019-01-02T13:38:21.823Z,88.20
2019-01-02T13:41:29.652Z,87.80
2019-01-02T13:44:22.316Z,87.20
2019-01-02T13:47:25.099Z,87.00
2019-01-02T13:50:13.688Z,86.90
2019-01-02T13:52:45.132Z,87.40
2019-01-02T13:55:24.913Z,88.00
2019-01-02T13:57:56.224Z,88.10
2019-01-02T14:00:35.997Z,88.00
2019-01-02T14:03:07.532Z,88.10
2019-01-02T14:05:49.239Z,87.70
2019-01-02T14:08:21.750Z,87.60
2019-01-02T14:10:53.589Z,89.10
2019-01-02T14:13:25.570Z,90.20
2019-01-02T14:15:57.002Z,90.50
2019-01-02T14:18:28.357Z,90.60
2019-01-02T14:20:59.828Z,90.80
2019-01-02T14:23:32.425Z,90.90
2019-01-02T14:26:03.976Z,90.90
2019-01-02T14:28:35.667Z,90.50
2019-01-02T14:31:07.188Z,89.80
2019-01-02T14:33:38.692Z,90.10
2019-01-02T14:36:14.820Z,90.00
2019-01-02T14:38:46.089Z,90.20
2019-01-02T14:41:17.431Z,90.00
2019-01-02T14:43:48.718Z,90.30
2019-01-02T14:46:28.513Z,90.50
2019-01-02T14:49:00.042Z,90.40
2019-01-02T14:51:32.864Z,89.90
2019-01-02T14:54:19.461Z,89.00
2019-01-02T14:57:04.796Z,89.10
2019-01-02T14:59:36.586Z,88.50
2019-01-02T15:02:08.586Z,87.90
2019-01-02T15:04:40.636Z,87.50
2019-01-02T15:07:11.670Z,87.80
2019-01-02T15:09:43.251Z,87.90
2019-01-02T15:12:14.626Z,87.90
2019-01-02T15:14:46.949Z,87.70
2019-01-02T15:17:17.799Z,88.20
2019-01-02T15:19:49.130Z,88.10
2019-01-02T15:22:32.839Z,88.20
2019-01-02T15:25:14.574Z,87.50
2019-01-02T15:27:47.836Z,87.30
2019-01-02T15:30:19.202Z,86.50
2019-01-02T15:32:51.531Z,85.70
2019-01-02T15:35:23.749Z,86.30
2019-01-02T15:37:55.383Z,86.60
2019-01-02T15:40:27.052Z,86.00
2019-01-02T15:42:58.659Z,87.30
2019-01-02T15:45:30.702Z,87.00
2019-01-02T15:48:02.419Z,87.40
2019-01-02T15:50:33.772Z,88.30
2019-01-02T15:53:05.822Z,89.00
2019-01-02T15:55:43.320Z,88.50
2019-01-02T15:58:14.657Z,89.60
2019-01-02T16:00:46.340Z,89.30
2019-01-02T16:03:17.288Z,90.20
2019-01-02T16:05:52.096Z,90.00
2019-01-02T16:08:25.648Z,90.10
2019-01-02T16:10:57.208Z,90.10
2019-01-02T16:13:29.023Z,89.30
2019-01-02T16:16:04.428Z,89.70
2019-01-02T16:18:36.096Z,89.80
2019-01-02T16:21:07.871Z,89.90
2019-01-02T16:23:39.322Z,89.20
2019-01-02T16:26:11.352Z,88.70
2019-01-02T16:28:42.651Z,89.40
2019-01-02T16:31:13.777Z,89.30
2019-01-02T16:33:45.283Z,89.70
2019-01-02T16:36:17.081Z,89.30
2019-01-02T16:38:48.359Z,89.90
2019-01-02T16:41:19.331Z,89.90
2019-01-02T16:43:51.274Z,89.90
2019-01-02T16:46:24.586Z,89.80
2019-01-02T16:48:56.282Z,90.10
2019-01-02T16:51:28.541Z,90.30
2019-01-02T16:53:59.840Z,90.10
2019-01-02T16:56:31.552Z,90.00
2019-01-02T16:59:03.206Z,90.40
2019-01-02T17:01:35.006Z,90.10
2019-01-02T17:04:07.644Z,90.50
2019-01-02T17:06:43.807Z,90.40
2019-01-02T17:09:15.217Z,90.50
2019-01-02T17:11:47.066Z,90.90
2019-01-02T17:14:18.578Z,90.90
2019-01-02T17:16:50.018Z,91.00
2019-01-02T17:19:21.221Z,90.20
2019-01-02T17:22:26.377Z,89.30
2019-01-02T17:24:58.299Z,88.90
2019-01-02T17:27:30.849Z,88.50
2019-01-02T17:30:02.342Z,88.00
2019-01-02T17:32:34.072Z,87.90
2019-01-02T17:35:22.585Z,87.90
2019-01-02T17:37:54.723Z,88.20
2019-01-02T17:40:27.188Z,88.30
2019-01-02T17:42:58.915Z,88.90
2019-01-02T17:45:30.440Z,89.80
2019-01-02T17:48:01.815Z,90.40
2019-01-02T17:50:35.135Z,90.40
2019-01-02T17:53:08.335Z,90.20
2019-01-02T17:55:40.301Z,89.80
2019-01-02T17:58:15.579Z,89.70
2019-01-02T18:00:47.725Z,89.80
2019-01-02T18:03:18.983Z,90.20
2019-01-02T18:05:50.775Z,90.10
2019-01-02T18:08:22.223Z,90.30
2019-01-02T18:10:54.180Z,89.60
2019-01-02T18:13:25.820Z,90.10
2019-01-02T18:15:57.609Z,90.20
2019-01-02T18:18:29.093Z,90.60
2019-01-02T18:21:07.862Z,90.90
2019-01-02T18:23:44.851Z,91.40
2019-01-02T18:26:15.957Z,91.70
2019-01-02T18:28:47.481Z,91.80
2019-01-02T18:31:18.721Z,92.00
2019-01-02T18:33:50.969Z,92.40
2019-01-02T18:36:22.714Z,92.40
2019-01-02T18:38:54.009Z,92.70
2019-01-02T20:27:45.797Z,91.30
2019-01-02T20:30:18.147Z,91.60
2019-01-02T20:32:49.608Z,91.80
2019-01-02T20:35:20.414Z,92.10
2019-01-02T20:37:51.470Z,92.20
2019-01-02T20:40:22.167Z,92.30
2019-01-02T20:42:55.743Z,92.30
2019-01-02T20:45:28.424Z,92.50
2019-01-02T20:47:59.250Z,92.50
2019-01-02T20:50:30.094Z,92.50
2019-01-02T20:53:01.413Z,92.70
2019-01-02T20:55:33.992Z,92.90
2019-01-02T20:58:05.428Z,93.10
2019-01-02T21:00:36.587Z,93.00
2019-01-02T21:03:08.110Z,93.10
2019-01-02T21:05:39.511Z,93.30
2019-01-02T21:08:10.605Z,93.20
2019-01-02T21:10:41.904Z,93.30
2019-01-02T21:13:12.989Z,93.30
2019-01-02T21:15:44.548Z,93.50
2019-01-02T21:18:15.568Z,93.80
2019-01-02T21:20:46.977Z,93.60
2019-01-02T21:23:18.129Z,93.80
2019-01-02T21:25:49.069Z,93.90
2019-01-02T21:28:19.709Z,93.70
2019-01-02T21:30:55.692Z,93.80
2019-01-02T21:33:27.599Z,94.10
2019-01-02T21:35:59.135Z,94.20
2019-01-02T21:38:30.402Z,94.20
2019-01-02T21:41:01.628Z,94.30
2019-01-02T21:43:33.330Z,94.70
2019-01-02T21:46:10.736Z,94.90
2019-01-02T21:48:42.059Z,95.20
2019-01-02T21:51:13.396Z,95.30
2019-01-02T21:53:44.910Z,95.60
2019-01-02T21:56:19.151Z,95.60
2019-01-02T21:58:50.094Z,95.70
2019-01-02T22:01:22.809Z,95.80
2019-01-02T22:03:53.998Z,95.90
2019-01-02T22:06:31.555Z,95.70
2019-01-02T22:09:03.696Z,95.60
2019-01-02T22:11:35.029Z,95.30
2019-01-02T22:14:06.966Z,95.20
2019-01-02T22:16:38.335Z,94.90
2019-01-02T22:19:15.335Z,94.60
2019-01-02T22:21:48.122Z,94.20
2019-01-02T22:24:19.353Z,93.50
2019-01-02T22:26:51.963Z,92.80
2019-01-02T22:29:23.369Z,93.20
2019-01-02T22:34:35.518Z,93.80
2019-01-02T22:37:10.442Z,94.20
2019-01-02T22:39:41.588Z,94.20
2019-01-02T22:42:12.654Z,94.70
2019-01-02T22:44:43.856Z,94.70
2019-01-02T22:47:14.861Z,94.50
2019-01-02T22:49:46.230Z,94.50
2019-01-02T22:52:18.073Z,95.10
2019-01-02T22:54:53.196Z,95.00
2019-01-02T22:57:23.965Z,95.40
2019-01-02T22:59:55.147Z,95.30
2019-01-02T23:02:45.391Z,95.60
2019-01-02T23:05:41.520Z,95.60
2019-01-02T23:08:31.168Z,95.90
2019-01-02T23:11:26.950Z,96.20
2019-01-02T23:14:20.755Z,96.40
2019-01-02T23:17:10.933Z,96.70
2019-01-02T23:20:01.068Z,96.40
2019-01-02T23:22:58.314Z,96.70
2019-01-02T23:25:47.042Z,97.00
2019-01-02T23:28:37.070Z,96.70
2019-01-02T23:31:33.301Z,96.90
2019-01-02T23:34:41.507Z,97.10
2019-01-02T23:37:37.331Z,96.90
2019-01-02T23:40:34.827Z,97.00
2019-01-02T23:43:35.205Z,96.80
2019-01-02T23:46:23.171Z,97.30
2019-01-02T23:49:18.865Z,97.50
2019-01-02T23:52:19.119Z,97.40
2019-01-02T23:55:14.488Z,97.50
2019-01-02T23:58:03.058Z,96.80
